Tuesday, January 16, 2018, 6:54 AM EST
Back to Local

KLGA, New York La Guardia Airport

Location: Astoria, NY, United States Lat: 40.783
Local Time: 6:54 AM EST (11:54 GMT) Lon: -73.883
Time Zone: US/Eastern Elev: 22 ft

Show me the last for .
Show Decoded

2018-01-16 05:51 METAR KLGA 161051Z 08006KT 10SM OVC010 M03/M07 A3050 RMK AO2 SLP328 T10331067 =
2018-01-16 04:51 METAR KLGA 160951Z 08006KT 10SM OVC012 M04/M07 A3050 RMK AO2 SLP326 T10391072 =
2018-01-16 03:51 METAR KLGA 160851Z 07003KT 10SM OVC011 M04/M08 A3051 RMK AO2 SLP330 T10391078
                 53006 =
2018-01-16 02:51 METAR KLGA 160751Z 11005KT 10SM OVC011 M04/M07 A3051 RMK AO2 SLP330 T10391067 =
2018-01-16 01:51 METAR KLGA 160651Z 10008KT 10SM OVC013 M04/M08 A3049 RMK AO2 SLP323 T10391083 =
2018-01-16 01:23 METAR KLGA 160623Z 08003KT 10SM OVC014 M04/M09 A3049 RMK AO2 T10391089 =
2018-01-16 01:11 METAR KLGA 160611Z 06004KT 10SM OVC015 M04/M09 A3048 RMK AO2 T10391089 =
2018-01-16 00:51 METAR KLGA 160551Z 06005KT 10SM OVC016 M04/M09 A3049 RMK AO2 SLP324 T10391089
                 11028 21044 56008 =
2018-01-15 23:51 METAR KLGA 160451Z 07005KT 10SM BKN017 BKN250 M04/M09 A3049 RMK AO2 SLP324
                 T10441089 410111089 =
2018-01-15 23:26 METAR KLGA 160426Z COR 04005KT 10SM BKN020 BKN250 M04/M08 A3051 RMK AO2
                 T10441083 =
2018-01-15 22:51 METAR KLGA 160351Z 09007KT 10SM FEW019 BKN250 M04/M09 A3051 RMK AO2 SLP331
                 T10391089 =
2018-01-15 21:51 METAR KLGA 160251Z 07009KT 10SM FEW250 M03/M08 A3052 RMK AO2 SLP333 T10331083
                 58007 =
2018-01-15 20:51 METAR KLGA 160151Z 07007KT 10SM FEW250 M03/M08 A3052 RMK AO2 SLP336 T10331083 =
2018-01-15 19:51 METAR KLGA 160051Z 06008KT 10SM FEW250 M03/M08 A3054 RMK AO2 SLP342 T10331083 =
2018-01-15 18:51 METAR KLGA 152351Z 07010KT 10SM FEW250 M03/M08 A3054 RMK AO2 SLP339 T10331083
                 11011 21033 50002 =
2018-01-15 17:51 METAR KLGA 152251Z 07012KT 10SM FEW035 SCT150 SCT250 M03/M08 A3054 RMK AO2
                 SLP340 T10281083 =
2018-01-15 16:51 METAR KLGA 152151Z 06014KT 10SM FEW035 SCT150 SCT250 M02/M08 A3053 RMK AO2
                 SLP339 T10221083 =
2018-01-15 15:51 METAR KLGA 152051Z 05014KT 10SM SCT036 BKN250 M02/M08 A3053 RMK AO2 SLP338
                 T10171078 56016 =
2018-01-15 14:51 METAR KLGA 151951Z 04012KT 10SM BKN036 BKN250 M02/M08 A3054 RMK AO2 SLP339
                 T10171083 =
2018-01-15 13:51 METAR KLGA 151851Z 05013KT 10SM BKN036 BKN250 M02/M08 A3055 RMK AO2 SLP345
                 T10221083 =
2018-01-15 12:51 METAR KLGA 151751Z 04014KT 10SM BKN036 M03/M09 A3058 RMK AO2 SLP353 T10281089
                 11028 21078 58032 =
2018-01-15 11:51 METAR KLGA 151651Z 04016KT 10SM BKN035 BKN250 M03/M09 A3061 RMK AO2 SLP365
                 T10331089 =
2018-01-15 10:51 METAR KLGA 151551Z 05013KT 10SM BKN032 M04/M09 A3066 RMK AO2 SLP382 T10391094 =
2018-01-15 09:51 METAR KLGA 151451Z 06015KT 10SM FEW042 FEW250 M04/M10 A3067 RMK AO2 SLP385
                 T10441100 55003 =
2018-01-15 08:51 METAR KLGA 151351Z 04013KT 10SM FEW042 FEW250 M06/M11 A3066 RMK AO2 SLP382
                 T10611111 =
2018-01-15 07:51 METAR KLGA 151251Z 03012KT 10SM FEW042 SCT250 M08/M13 A3067 RMK AO2 SLP385
                 T10781128 =

Support USWX by starting your Amazon purchase here.